createdAt,value
2019-04-05T00:01:48.382Z,98.40
2019-04-05T00:04:18.431Z,99.20
2019-04-05T00:06:48.387Z,99.60
2019-04-05T00:09:18.373Z,99.90
2019-04-05T00:11:48.592Z,99.90
2019-04-05T00:14:18.567Z,99.90
2019-04-05T00:16:48.523Z,99.90
2019-04-05T00:19:18.499Z,99.90
2019-04-05T00:21:48.459Z,99.90
2019-04-05T00:24:18.439Z,99.90
2019-04-05T00:26:48.600Z,99.90
2019-04-05T00:29:18.583Z,99.90
2019-04-05T00:31:48.535Z,99.90
2019-04-05T00:34:18.506Z,99.90
2019-04-05T00:36:48.462Z,99.90
2019-04-05T00:39:18.515Z,99.90
2019-04-05T00:41:48.471Z,99.90
2019-04-05T00:44:18.452Z,99.90
2019-04-05T00:46:48.414Z,99.90
2019-04-05T00:49:18.473Z,99.90
2019-04-05T00:51:48.428Z,99.90
2019-04-05T00:54:18.483Z,99.90
2019-04-05T00:56:48.439Z,99.90
2019-04-05T00:59:18.419Z,99.90
2019-04-05T01:01:48.377Z,99.90
2019-04-05T01:04:18.351Z,99.90
2019-04-05T01:06:48.306Z,99.90
2019-04-05T01:09:18.300Z,99.90
2019-04-05T01:11:48.494Z,99.90
2019-04-05T01:14:18.917Z,99.90
2019-04-05T01:16:48.940Z,99.90
2019-04-05T01:19:20.460Z,99.90
2019-04-05T01:21:50.419Z,99.90
2019-04-05T01:24:20.865Z,99.90
2019-04-05T01:26:51.463Z,99.90
2019-04-05T01:29:21.574Z,99.90
2019-04-05T01:31:52.503Z,99.90
2019-04-05T01:34:23.450Z,99.90
2019-04-05T01:36:53.418Z,99.90
2019-04-05T01:39:23.395Z,99.90
2019-04-05T01:41:53.351Z,99.90
2019-04-05T01:44:23.391Z,99.90
2019-04-05T01:46:54.593Z,99.90
2019-04-05T01:49:24.567Z,99.90
2019-04-05T01:51:54.794Z,99.90
2019-04-05T01:54:24.847Z,99.90
2019-04-05T01:56:54.795Z,99.90
2019-04-05T01:59:24.827Z,99.90
2019-04-05T02:01:54.807Z,99.90
2019-04-05T02:04:24.858Z,99.90
2019-04-05T02:06:54.874Z,99.90
2019-04-05T02:09:24.891Z,99.90
2019-04-05T02:11:55.020Z,99.90
2019-04-05T02:14:25.068Z,99.90
2019-04-05T02:16:55.019Z,99.90
2019-04-05T02:19:25.066Z,99.90
2019-04-05T02:21:55.023Z,99.90
2019-04-05T02:24:25.068Z,99.90
2019-04-05T02:26:55.024Z,99.90
2019-04-05T02:29:25.005Z,99.90
2019-04-05T02:31:54.963Z,99.90
2019-04-05T02:34:24.940Z,99.90
2019-04-05T02:36:54.895Z,99.90
2019-04-05T02:39:24.871Z,99.90
2019-04-05T02:41:56.867Z,99.90
2019-04-05T02:44:27.490Z,99.90
2019-04-05T02:46:57.586Z,99.90
2019-04-05T02:49:31.010Z,99.90
2019-04-05T02:52:02.743Z,99.90
2019-04-05T02:54:34.242Z,99.90
2019-04-05T02:57:04.936Z,99.90
2019-04-05T02:59:35.249Z,99.90
2019-04-05T03:02:05.474Z,99.90
2019-04-05T03:04:36.001Z,99.90
2019-04-05T03:07:06.392Z,99.90
2019-04-05T03:09:37.008Z,99.90
2019-04-05T03:12:07.513Z,99.90
2019-04-05T03:14:38.430Z,99.90
2019-04-05T03:17:09.831Z,99.90
2019-04-05T03:19:41.195Z,99.90
2019-04-05T03:22:13.599Z,99.90
2019-04-05T03:24:46.238Z,99.90
2019-04-05T03:27:19.273Z,99.90
2019-04-05T03:29:50.015Z,99.90
2019-04-05T03:32:20.035Z,99.90
2019-04-05T03:34:50.383Z,99.90
2019-04-05T03:37:20.975Z,99.90
2019-04-05T03:39:51.500Z,99.90
2019-04-05T03:42:21.859Z,99.90
2019-04-05T03:44:52.216Z,99.90
2019-04-05T03:47:22.126Z,99.90
2019-04-05T03:49:52.354Z,99.90
2019-04-05T03:52:22.657Z,99.90
2019-04-05T03:54:53.195Z,99.90
2019-04-05T03:57:23.781Z,99.90
2019-04-05T03:59:53.826Z,99.90
2019-04-05T04:02:23.976Z,99.90
2019-04-05T04:04:54.711Z,99.90
2019-04-05T04:07:24.671Z,99.90
2019-04-05T04:09:54.809Z,99.90
2019-04-05T04:12:25.094Z,99.90
2019-04-05T04:14:58.735Z,99.90
2019-04-05T04:17:29.120Z,99.90
2019-04-05T04:19:59.158Z,99.90
2019-04-05T04:22:30.062Z,99.90
2019-04-05T04:25:00.361Z,99.90
2019-04-05T04:27:30.973Z,99.90
2019-04-05T04:30:01.800Z,99.90
2019-04-05T04:32:31.817Z,99.90
2019-04-05T04:35:02.650Z,99.90
2019-04-05T04:37:33.043Z,99.90
2019-04-05T04:40:04.161Z,99.90
2019-04-05T04:42:34.349Z,99.90
2019-04-05T04:45:11.996Z,99.90
2019-04-05T04:47:37.401Z,99.90
2019-04-05T04:50:08.287Z,99.90
2019-04-05T04:52:38.582Z,99.90
2019-04-05T04:55:09.696Z,99.90
2019-04-05T04:57:39.910Z,99.90
2019-04-05T05:00:10.222Z,99.90
2019-04-05T05:02:40.813Z,99.90
2019-04-05T05:05:12.306Z,99.90
2019-04-05T05:07:42.614Z,99.90
2019-04-05T05:10:12.838Z,99.90
2019-04-05T05:13:02.146Z,99.90
2019-04-05T05:15:32.396Z,99.90
2019-04-05T05:18:02.823Z,99.90
2019-04-05T05:20:32.935Z,99.90
2019-04-05T05:23:03.059Z,99.90
2019-04-05T05:25:34.069Z,99.90
2019-04-05T05:28:04.258Z,99.90
2019-04-05T05:30:34.681Z,99.90
2019-04-05T05:33:04.966Z,99.90
2019-04-05T05:35:35.114Z,99.90
2019-04-05T05:38:05.230Z,99.90
2019-04-05T05:40:35.672Z,99.90
2019-04-05T05:43:05.698Z,99.90
2019-04-05T05:45:35.666Z,99.90
2019-04-05T05:48:05.763Z,99.90
2019-04-05T05:50:36.375Z,99.90
2019-04-05T05:53:06.394Z,99.90
2019-04-05T05:55:36.450Z,99.90
2019-04-05T05:58:06.393Z,99.90
2019-04-05T06:00:36.366Z,99.90
2019-04-05T06:03:06.537Z,99.90
2019-04-05T06:05:37.198Z,99.90
2019-04-05T06:08:07.239Z,99.90
2019-04-05T06:10:37.201Z,99.90
2019-04-05T06:13:07.852Z,99.90
2019-04-05T06:15:37.839Z,99.90
2019-04-05T06:18:09.862Z,99.90
2019-04-05T06:20:39.400Z,99.90
2019-04-05T06:23:09.354Z,99.90
2019-04-05T06:25:39.381Z,99.90
2019-04-05T06:28:09.354Z,99.90
2019-04-05T06:30:39.309Z,99.90
2019-04-05T06:33:09.282Z,99.90
2019-04-05T06:35:39.236Z,99.90
2019-04-05T06:38:09.214Z,99.90
2019-04-05T06:40:41.016Z,99.90
2019-04-05T06:43:10.754Z,99.90
2019-04-05T06:45:40.748Z,99.90
2019-04-05T06:48:18.904Z,99.90
2019-04-05T06:50:42.257Z,99.90
2019-04-05T06:53:12.234Z,99.90
2019-04-05T06:55:42.177Z,99.90
2019-04-05T06:58:19.617Z,99.90
2019-04-05T07:00:56.440Z,99.90
2019-04-05T07:03:15.411Z,99.90
2019-04-05T07:05:45.507Z,99.90
2019-04-05T07:08:18.202Z,99.90
2019-04-05T07:10:47.055Z,99.90
2019-04-05T07:13:17.027Z,99.90
2019-04-05T07:15:46.977Z,99.90
2019-04-05T07:18:16.962Z,99.90
2019-04-05T07:20:46.895Z,99.90
2019-04-05T07:23:16.875Z,99.90
2019-04-05T07:25:46.826Z,99.90
2019-04-05T07:28:16.926Z,99.90
2019-04-05T07:30:46.925Z,99.90
2019-04-05T07:33:16.872Z,99.90
2019-04-05T07:35:46.830Z,99.90
2019-04-05T07:38:16.816Z,99.90
2019-04-05T07:40:46.782Z,99.90
2019-04-05T07:43:16.786Z,99.90
2019-04-05T07:45:46.747Z,99.90
2019-04-05T07:48:16.726Z,99.90
2019-04-05T07:50:46.687Z,99.90
2019-04-05T07:53:16.668Z,99.90
2019-04-05T07:55:46.621Z,99.90
2019-04-05T07:58:16.601Z,99.90
2019-04-05T08:00:52.403Z,99.90
2019-04-05T08:03:23.330Z,99.90
2019-04-05T08:05:54.526Z,99.90
2019-04-05T08:08:30.175Z,99.90
2019-04-05T08:11:00.378Z,99.90
2019-04-05T08:13:31.551Z,99.90
2019-04-05T08:16:01.739Z,99.90
2019-04-05T08:18:31.793Z,99.90
2019-04-05T08:21:01.768Z,99.90
2019-04-05T08:23:31.780Z,99.90
2019-04-05T08:26:01.750Z,99.90
2019-04-05T08:28:32.817Z,99.90
2019-04-05T08:31:02.782Z,99.40
2019-04-05T08:33:32.868Z,98.80
2019-04-05T08:36:03.866Z,98.70
2019-04-05T08:38:33.988Z,99.00
2019-04-05T08:41:03.950Z,98.60
2019-04-05T08:43:33.955Z,98.30
2019-04-05T08:46:03.934Z,98.60
2019-04-05T08:48:33.919Z,98.50
2019-04-05T08:51:04.035Z,98.40
2019-04-05T08:53:34.023Z,98.20
2019-04-05T08:56:04.053Z,98.80
2019-04-05T08:58:34.040Z,99.00
2019-04-05T09:01:04.352Z,98.80
2019-04-05T09:03:34.335Z,97.80
2019-04-05T09:06:04.397Z,97.90
2019-04-05T09:08:34.438Z,97.70
2019-04-05T09:11:04.399Z,98.60
2019-04-05T09:13:34.378Z,97.80
2019-04-05T09:16:04.338Z,97.20
2019-04-05T09:18:34.319Z,96.90
2019-04-05T09:21:04.415Z,96.90
2019-04-05T09:23:35.462Z,98.10
2019-04-05T09:26:05.595Z,97.60
2019-04-05T09:28:35.580Z,96.80
2019-04-05T09:31:05.534Z,96.70
2019-04-05T09:33:35.522Z,96.60
2019-04-05T09:36:05.716Z,96.30
2019-04-05T09:38:35.694Z,96.60
2019-04-05T09:41:05.722Z,96.60
2019-04-05T09:43:35.710Z,97.20
2019-04-05T09:46:05.837Z,97.40
2019-04-05T09:48:35.813Z,96.80
2019-04-05T09:51:07.119Z,98.70
2019-04-05T09:53:37.323Z,97.00
2019-04-05T09:56:07.307Z,99.00
2019-04-05T09:58:37.666Z,97.80
2019-04-05T10:01:07.756Z,96.90
2019-04-05T10:03:37.742Z,95.10
2019-04-05T10:06:07.879Z,96.30
2019-04-05T10:08:37.937Z,95.50
2019-04-05T10:11:07.898Z,95.70
2019-04-05T10:13:37.882Z,96.20
2019-04-05T10:16:07.837Z,94.40
2019-04-05T10:18:37.828Z,95.00
2019-04-05T10:21:07.782Z,95.30
2019-04-05T10:23:37.839Z,94.40
2019-04-05T10:26:07.938Z,95.00
2019-04-05T10:28:37.983Z,95.30
2019-04-05T10:31:07.966Z,94.90
2019-04-05T10:33:38.021Z,94.00
2019-04-05T10:36:07.979Z,94.80
2019-04-05T10:38:38.046Z,96.50
2019-04-05T10:41:08.178Z,94.60
2019-04-05T10:43:38.187Z,94.10
2019-04-05T10:46:08.179Z,93.60
2019-04-05T10:48:38.158Z,94.40
2019-04-05T10:51:08.130Z,95.50
2019-04-05T10:53:38.176Z,94.40
2019-04-05T10:56:08.083Z,94.00
2019-04-05T10:58:38.137Z,93.70
2019-04-05T11:01:08.182Z,93.40
2019-04-05T11:03:38.162Z,93.40
2019-04-05T11:06:08.123Z,93.70
2019-04-05T11:08:38.097Z,92.70
2019-04-05T11:11:08.058Z,94.20
2019-04-05T11:13:38.114Z,93.10
2019-04-05T11:16:08.075Z,93.60
2019-04-05T11:18:38.065Z,94.20
2019-04-05T11:21:08.019Z,93.60
2019-04-05T11:23:38.004Z,92.10
2019-04-05T11:26:07.958Z,91.80
2019-04-05T11:28:37.934Z,92.30
2019-04-05T11:31:07.968Z,94.60
2019-04-05T11:33:37.938Z,92.10
2019-04-05T11:36:08.434Z,93.00
2019-04-05T11:38:38.883Z,92.10
2019-04-05T11:41:08.970Z,90.80
2019-04-05T11:43:40.395Z,93.00
2019-04-05T11:46:10.410Z,91.90
2019-04-05T11:48:41.335Z,90.30
2019-04-05T11:51:12.590Z,87.70
2019-04-05T11:53:42.570Z,90.20
2019-04-05T11:56:14.775Z,90.30
2019-04-05T11:58:48.531Z,85.10
2019-04-05T12:01:23.137Z,89.60
2019-04-05T12:03:51.850Z,88.90
2019-04-05T12:06:21.806Z,90.60
2019-04-05T12:08:51.801Z,86.40
2019-04-05T12:11:21.799Z,89.30
2019-04-05T12:13:51.775Z,91.00
2019-04-05T12:16:21.723Z,87.70
2019-04-05T12:18:51.703Z,90.20
2019-04-05T12:21:21.662Z,87.30
2019-04-05T12:23:51.635Z,89.50
2019-04-05T12:26:21.586Z,91.20
2019-04-05T12:28:51.563Z,84.80
2019-04-05T12:31:22.290Z,90.10
2019-04-05T12:33:52.520Z,87.90
2019-04-05T12:36:22.752Z,88.40
2019-04-05T12:38:54.347Z,86.70
2019-04-05T12:41:24.418Z,84.00
2019-04-05T12:43:54.415Z,85.10
2019-04-05T12:46:24.374Z,85.00
2019-04-05T12:48:54.357Z,86.40
2019-04-05T12:51:24.315Z,88.40
2019-04-05T12:53:56.480Z,86.90
2019-04-05T12:56:26.526Z,85.90
2019-04-05T12:58:57.158Z,86.20
2019-04-05T13:01:27.110Z,88.20
2019-04-05T13:03:58.666Z,87.10
2019-04-05T13:06:28.844Z,87.50
2019-04-05T13:08:58.907Z,88.90
2019-04-05T13:11:28.850Z,86.50
2019-04-05T13:13:58.839Z,86.30
2019-04-05T13:16:29.486Z,85.00
2019-04-05T13:19:00.867Z,85.10
2019-04-05T13:21:33.037Z,86.60
2019-04-05T13:24:04.248Z,90.80
2019-04-05T13:26:36.657Z,88.20
2019-04-05T13:29:05.878Z,87.70
2019-04-05T13:31:35.868Z,84.40
2019-04-05T13:34:06.204Z,82.70
2019-04-05T13:36:36.299Z,84.80
2019-04-05T13:39:07.587Z,82.10
2019-04-05T13:41:37.613Z,86.20
2019-04-05T13:44:07.560Z,81.40
2019-04-05T13:46:39.043Z,79.00
2019-04-05T13:49:10.995Z,81.10
2019-04-05T13:51:42.124Z,81.40
2019-04-05T13:54:12.746Z,81.50
2019-04-05T13:56:42.728Z,82.30
2019-04-05T13:59:12.746Z,84.10
2019-04-05T14:01:42.796Z,80.90
2019-04-05T14:04:12.778Z,81.60
2019-04-05T14:06:42.816Z,80.20
2019-04-05T14:09:15.529Z,82.90
2019-04-05T14:11:44.908Z,82.80
2019-04-05T14:14:14.865Z,80.50
2019-04-05T14:16:44.843Z,80.50
2019-04-05T14:19:18.385Z,80.20
2019-04-05T14:21:47.817Z,78.90
2019-04-05T14:24:17.901Z,79.10
2019-04-05T14:26:47.878Z,81.30
2019-04-05T14:29:17.922Z,78.00
2019-04-05T14:31:47.947Z,73.90
2019-04-05T14:34:17.842Z,75.30
2019-04-05T14:36:47.821Z,75.30
2019-04-05T14:39:18.742Z,75.70
2019-04-05T14:41:48.713Z,72.00
2019-04-05T14:44:18.680Z,74.00
2019-04-05T14:46:48.645Z,73.30
2019-04-05T14:49:18.603Z,74.90
2019-04-05T14:51:55.040Z,74.70
2019-04-05T14:54:20.227Z,74.50
2019-04-05T14:56:50.220Z,77.00
2019-04-05T14:59:20.141Z,78.50
2019-04-05T15:01:50.113Z,74.40
2019-04-05T15:04:20.139Z,76.50
2019-04-05T15:06:50.611Z,78.20
2019-04-05T15:09:23.688Z,79.60
2019-04-05T15:11:53.462Z,79.30
2019-04-05T15:14:23.414Z,74.30
2019-04-05T15:16:53.454Z,72.30
2019-04-05T15:19:23.442Z,72.50
2019-04-05T15:22:04.847Z,73.60
2019-04-05T15:24:25.022Z,74.20
2019-04-05T15:26:55.018Z,74.40
2019-04-05T15:29:26.115Z,72.10
2019-04-05T15:31:57.018Z,70.10
2019-04-05T15:34:28.480Z,71.50
2019-04-05T15:36:59.377Z,71.10
2019-04-05T15:39:30.791Z,71.40
2019-04-05T15:42:01.330Z,72.40
2019-04-05T15:44:31.287Z,71.60
2019-04-05T15:47:01.346Z,68.60
2019-04-05T15:49:31.302Z,70.40
2019-04-05T15:52:01.286Z,70.20
2019-04-05T15:54:33.205Z,71.20
2019-04-05T15:57:03.757Z,68.40
2019-04-05T15:59:34.413Z,70.70
2019-04-05T16:02:04.452Z,67.40
2019-04-05T16:04:35.513Z,70.30
2019-04-05T16:07:05.587Z,69.40
2019-04-05T16:09:35.578Z,70.40
2019-04-05T16:12:05.962Z,68.50
2019-04-05T16:14:36.022Z,73.20
2019-04-05T16:17:06.265Z,71.40
2019-04-05T16:19:36.258Z,70.80
2019-04-05T16:22:06.315Z,69.30
2019-04-05T16:24:36.372Z,68.90
2019-04-05T16:27:06.310Z,70.20
2019-04-05T16:29:36.262Z,71.30
2019-04-05T16:32:06.237Z,72.00
2019-04-05T16:34:36.187Z,73.70
2019-04-05T16:37:06.339Z,74.50
2019-04-05T16:39:36.300Z,72.10
2019-04-05T16:42:06.271Z,72.80
2019-04-05T16:44:36.394Z,76.00
2019-04-05T16:47:06.372Z,76.70
2019-04-05T16:49:36.318Z,78.10
2019-04-05T16:52:06.362Z,80.00
2019-04-05T16:54:36.313Z,80.20
2019-04-05T16:57:06.359Z,80.90
2019-04-05T16:59:36.322Z,81.70
2019-04-05T17:02:06.298Z,83.30
2019-04-05T17:04:36.844Z,84.40
2019-04-05T17:07:06.878Z,85.20
2019-04-05T17:09:36.831Z,83.30
2019-04-05T17:12:06.803Z,83.80
2019-04-05T17:14:36.966Z,84.70
2019-04-05T17:17:07.294Z,85.40
2019-04-05T17:19:37.922Z,84.90
2019-04-05T17:22:08.276Z,85.30
2019-04-05T17:24:39.010Z,84.10
2019-04-05T17:27:08.990Z,84.90
2019-04-05T17:29:40.067Z,85.40
2019-04-05T17:32:10.374Z,86.60
2019-04-05T17:34:41.117Z,86.20
2019-04-05T17:37:11.162Z,85.80
2019-04-05T17:39:41.258Z,85.90
2019-04-05T17:42:11.443Z,86.90
2019-04-05T17:44:41.710Z,88.40
2019-04-05T17:47:11.725Z,89.10
2019-04-05T17:49:42.219Z,89.50
2019-04-05T17:52:12.206Z,90.00
2019-04-05T17:54:42.445Z,89.20
2019-04-05T17:57:12.674Z,89.30
2019-04-05T17:59:43.621Z,89.10
2019-04-05T18:02:13.849Z,88.70
2019-04-05T18:04:43.841Z,88.30
2019-04-05T18:07:14.027Z,88.20
2019-04-05T18:09:43.942Z,89.70
2019-04-05T18:12:14.004Z,89.30
2019-04-05T18:14:44.222Z,89.20
2019-04-05T18:17:14.475Z,89.20
2019-04-05T18:19:45.518Z,90.10
2019-04-05T18:22:15.463Z,88.70
2019-04-05T18:24:45.663Z,89.20
2019-04-05T18:27:15.630Z,89.40
2019-04-05T18:29:45.577Z,88.20
2019-04-05T18:32:15.679Z,89.50
2019-04-05T18:34:45.728Z,88.00
2019-04-05T18:37:15.678Z,88.60
2019-04-05T18:39:45.658Z,89.60
2019-04-05T18:42:15.842Z,90.00
2019-04-05T18:44:46.026Z,89.30
2019-04-05T18:47:16.123Z,89.90
2019-04-05T18:49:46.144Z,90.20
2019-04-05T18:52:16.106Z,90.00
2019-04-05T18:54:46.057Z,90.10
2019-04-05T18:57:16.199Z,90.20
2019-04-05T18:59:46.239Z,90.20
2019-04-05T19:02:16.223Z,90.60
2019-04-05T19:04:46.170Z,90.30
2019-04-05T19:07:16.152Z,90.70
2019-04-05T19:09:46.126Z,90.80
2019-04-05T19:12:16.149Z,91.20
2019-04-05T19:14:46.109Z,91.40
2019-04-05T19:17:23.702Z,91.30
2019-04-05T19:19:47.650Z,91.10
2019-04-05T19:22:17.622Z,91.70
2019-04-05T19:24:47.575Z,91.70
2019-04-05T19:27:17.556Z,92.10
2019-04-05T19:29:47.502Z,92.30
2019-04-05T19:49:58.807Z,93.50
2019-04-05T19:52:28.798Z,93.90
2019-04-05T19:54:58.753Z,94.00
2019-04-05T19:57:28.730Z,93.80
2019-04-05T19:59:58.682Z,93.90
2019-04-05T20:02:28.653Z,94.00
2019-04-05T20:04:58.607Z,94.00
2019-04-05T20:07:28.577Z,94.30
2019-04-05T20:09:58.537Z,94.30
2019-04-05T20:12:28.507Z,94.40
2019-04-05T20:14:58.523Z,94.40
2019-04-05T20:17:28.575Z,94.20
2019-04-05T20:19:58.527Z,94.20
2019-04-05T20:22:28.501Z,94.30
2019-04-05T20:24:58.527Z,94.80
2019-04-05T20:27:28.506Z,94.70
2019-04-05T20:29:58.462Z,94.70
2019-04-05T20:32:28.441Z,94.60
2019-04-05T20:34:58.463Z,95.00
2019-04-05T20:37:28.462Z,94.70
2019-04-05T20:39:58.456Z,95.00
2019-04-05T20:42:28.440Z,95.50
2019-04-05T20:44:58.481Z,95.00
2019-04-05T20:47:28.430Z,95.40
2019-04-05T20:49:58.427Z,95.00
2019-04-05T20:52:28.514Z,95.40
2019-04-05T20:54:58.488Z,95.40
2019-04-05T20:57:28.445Z,95.60
2019-04-05T20:59:58.499Z,95.90
2019-04-05T21:02:28.454Z,95.90
2019-04-05T21:04:58.430Z,96.10
2019-04-05T21:07:28.490Z,96.20
2019-04-05T21:09:58.462Z,96.30
2019-04-05T21:12:28.423Z,96.40
2019-04-05T21:14:58.405Z,96.20
2019-04-05T21:17:28.362Z,96.40
2019-04-05T21:19:58.334Z,96.90
2019-04-05T21:22:28.298Z,96.70
2019-04-05T21:24:59.450Z,96.90
2019-04-05T21:27:29.576Z,97.20
2019-04-05T21:29:59.547Z,97.30
2019-04-05T21:32:29.507Z,97.50
2019-04-05T21:34:59.482Z,97.60
2019-04-05T21:37:29.442Z,97.50
2019-04-05T21:39:59.413Z,97.90
2019-04-05T21:42:29.371Z,97.80
2019-04-05T21:44:59.509Z,97.80
2019-04-05T21:47:29.533Z,97.80
2019-04-05T21:49:59.506Z,98.10
2019-04-05T21:52:29.459Z,98.00
2019-04-05T21:54:59.435Z,98.10
2019-04-05T21:57:29.386Z,98.20
2019-04-05T21:59:59.370Z,98.20
2019-04-05T22:02:30.557Z,98.40
2019-04-05T22:05:01.359Z,98.30
2019-04-05T22:07:32.462Z,98.70
2019-04-05T22:10:02.442Z,98.50
2019-04-05T22:12:32.566Z,98.80
2019-04-05T22:15:02.612Z,98.40
2019-04-05T22:17:32.547Z,98.80
2019-04-05T22:20:02.514Z,99.00
2019-04-05T22:22:32.465Z,99.30
2019-04-05T22:25:02.451Z,98.80
2019-04-05T22:27:32.566Z,98.20
2019-04-05T22:30:02.534Z,98.50
2019-04-05T22:32:32.481Z,98.60
2019-04-05T22:35:02.441Z,98.90
2019-04-05T22:37:32.410Z,99.10
2019-04-05T22:40:02.378Z,98.60
2019-04-05T22:42:32.461Z,99.10
2019-04-05T22:45:03.807Z,98.90
2019-04-05T22:47:35.290Z,99.30
2019-04-05T22:50:08.806Z,99.00
2019-04-05T22:52:38.750Z,99.40
2019-04-05T22:55:11.474Z,99.50
2019-04-05T22:57:40.291Z,99.50
2019-04-05T23:00:10.602Z,99.40
2019-04-05T23:02:42.145Z,99.50
2019-04-05T23:05:12.181Z,99.10
2019-04-05T23:07:42.155Z,99.20
2019-04-05T23:10:12.575Z,99.00
2019-04-05T23:12:42.489Z,99.10
2019-04-05T23:15:12.694Z,99.30
2019-04-05T23:17:42.637Z,99.30
2019-04-05T23:20:13.007Z,99.70
2019-04-05T23:22:42.956Z,99.40
2019-04-05T23:25:21.525Z,99.40
2019-04-05T23:27:44.741Z,99.20
2019-04-05T23:30:14.953Z,99.30
2019-04-05T23:32:44.898Z,99.30
2019-04-05T23:35:14.933Z,99.60
2019-04-05T23:37:44.921Z,99.70
2019-04-05T23:40:14.979Z,99.40
2019-04-05T23:42:44.929Z,99.40
2019-04-05T23:45:14.970Z,99.30
2019-04-05T23:47:44.910Z,99.40
2019-04-05T23:50:14.942Z,99.60
2019-04-05T23:52:44.885Z,99.60
2019-04-05T23:55:14.855Z,99.40
2019-04-05T23:57:44.802Z,99.50
